Time;durP1;ratioP1;P1;durP2;ratioP2;P2;SDS_P1;SDS_P2;PMS_P1;PMS_P2;Temp;Humidity;BMP_temperature;BMP_pressure;BME280_temperature;BME280_humidity;BME280_pressure;Samples;Min_cycle;Max_cycle;Signal;HPM_P1;HPM_P2
2021/09/15 04:00:38;;;;;;;16.20;14.67;;;20.80;99.90;;;;;;5874631;23;20552;-70
2021/09/15 04:03:05;;;;;;;15.27;13.73;;;20.80;99.90;;;;;;4977605;28;20443;-70
2021/09/15 04:05:31;;;;;;;15.07;13.77;;;20.70;99.90;;;;;;4977719;28;20446;-70
2021/09/15 04:07:58;;;;;;;18.77;15.17;;;20.70;99.90;;;;;;4977582;28;20458;-70
2021/09/15 04:10:25;;;;;;;14.27;13.00;;;20.70;99.90;;;;;;4977544;28;20489;-70
2021/09/15 04:12:52;;;;;;;17.33;15.67;;;20.80;99.90;;;;;;4977518;28;20818;-70
2021/09/15 04:15:18;;;;;;;16.47;14.97;;;20.80;99.90;;;;;;4977538;28;20795;-70
2021/09/15 04:17:46;;;;;;;15.37;13.97;;;20.80;99.90;;;;;;4977440;28;20465;-69
2021/09/15 04:20:13;;;;;;;14.83;13.50;;;20.80;99.90;;;;;;4976983;28;20938;-70
2021/09/15 04:22:42;;;;;;;15.80;14.57;;;20.80;99.90;;;;;;4977294;28;20459;-70
2021/09/15 04:33:23;;;;;;;15.47;13.90;;;20.80;99.90;;;;;;4977592;28;20426;-68
2021/09/15 04:35:49;;;;;;;15.87;14.53;;;20.80;99.90;;;;;;4977779;28;20486;-69
2021/09/15 04:38:16;;;;;;;14.97;13.77;;;20.80;99.90;;;;;;4977196;28;20466;-70
2021/09/15 04:40:43;;;;;;;16.80;15.40;;;20.80;99.90;;;;;;4985611;28;20475;-70
2021/09/15 04:43:09;;;;;;;15.90;14.47;;;20.80;99.90;;;;;;4988321;28;20454;-70
2021/09/15 04:45:37;;;;;;;14.60;13.30;;;20.80;99.90;;;;;;4977791;28;20462;-69
2021/09/15 04:48:04;;;;;;;16.70;15.30;;;20.80;99.90;;;;;;4977105;28;20501;-70
2021/09/15 04:50:32;;;;;;;14.63;13.50;;;20.80;99.90;;;;;;4976721;28;20487;-70
2021/09/15 04:52:59;;;;;;;15.60;14.17;;;20.80;99.90;;;;;;4976506;28;20458;-70
2021/09/15 04:55:29;;;;;;;16.07;14.80;;;20.80;99.90;;;;;;4976852;28;20505;-71
2021/09/15 04:57:55;;;;;;;15.77;14.23;;;20.90;99.90;;;;;;4976822;28;20494;-71
2021/09/15 05:00:22;;;;;;;14.80;13.40;;;20.80;99.90;;;;;;4976497;28;20458;-69
2021/09/15 05:02:49;;;;;;;15.23;13.90;;;20.80;99.90;;;;;;4976700;28;20451;-71
2021/09/15 05:05:15;;;;;;;14.33;13.13;;;20.80;99.90;;;;;;4976522;28;20455;-69
2021/09/15 05:07:44;;;;;;;15.87;14.47;;;20.80;99.90;;;;;;4977236;28;20968;-69
2021/09/15 05:10:10;;;;;;;15.10;13.70;;;20.80;99.90;;;;;;4976397;28;20479;-68
2021/09/15 05:12:37;;;;;;;13.97;12.77;;;20.80;99.90;;;;;;4976627;28;20454;-68
2021/09/15 05:15:05;;;;;;;18.07;14.97;;;20.80;99.90;;;;;;4976449;28;20459;-68
2021/09/15 05:17:32;;;;;;;15.23;13.17;;;20.80;99.90;;;;;;4976379;28;20459;-68
2021/09/15 05:19:58;;;;;;;16.23;14.67;;;20.70;99.90;;;;;;4975982;28;20446;-68
2021/09/15 05:22:25;;;;;;;13.43;11.90;;;20.60;99.90;;;;;;4976311;28;20474;-69
2021/09/15 05:24:54;;;;;;;15.63;12.27;;;20.60;99.90;;;;;;4976438;28;20795;-68
2021/09/15 05:27:21;;;;;;;14.70;13.27;;;20.60;99.90;;;;;;4976354;28;20525;-68
2021/09/15 05:29:47;;;;;;;15.30;14.00;;;20.60;99.90;;;;;;4976222;28;20486;-67
2021/09/15 05:32:14;;;;;;;15.90;14.60;;;20.60;99.90;;;;;;4976251;28;20550;-67
2021/09/15 05:34:41;;;;;;;16.43;14.77;;;20.50;99.90;;;;;;4976065;28;20455;-66
2021/09/15 05:37:08;;;;;;;13.90;12.67;;;20.50;99.90;;;;;;4975573;28;20937;-66
2021/09/15 05:39:34;;;;;;;16.90;12.57;;;20.50;99.90;;;;;;4976027;28;20462;-66
2021/09/15 05:42:03;;;;;;;16.57;13.30;;;20.60;99.90;;;;;;4976010;28;20500;-66
2021/09/15 05:44:29;;;;;;;17.23;10.80;;;20.70;99.90;;;;;;4975857;28;20458;-66
2021/09/15 05:46:56;;;;;;;12.50;9.77;;;20.70;99.90;;;;;;4976211;28;20454;-66
2021/09/15 05:49:23;;;;;;;12.73;11.63;;;20.70;99.90;;;;;;4977138;28;20462;-68
2021/09/15 05:51:50;;;;;;;12.70;11.60;;;20.70;99.90;;;;;;4977643;28;20479;-68
2021/09/15 05:54:16;;;;;;;12.77;11.63;;;20.80;99.90;;;;;;4976699;28;20463;-69
2021/09/15 05:56:43;;;;;;;12.60;11.57;;;20.70;99.90;;;;;;4979498;28;20933;-68
2021/09/15 05:59:12;;;;;;;11.07;10.27;;;20.70;99.90;;;;;;4979590;28;20458;-69
2021/09/15 06:01:38;;;;;;;11.53;10.50;;;20.70;99.90;;;;;;4975434;28;20562;-69
2021/09/15 06:04:05;;;;;;;11.40;10.40;;;20.60;99.90;;;;;;4975360;28;20965;-69
2021/09/15 06:06:32;;;;;;;11.20;10.27;;;20.60;99.90;;;;;;4975490;28;20465;-69
2021/09/15 06:08:59;;;;;;;11.50;10.53;;;20.60;99.90;;;;;;4975401;28;20466;-69
2021/09/15 06:11:26;;;;;;;11.37;10.47;;;20.60;99.90;;;;;;4974882;28;20903;-69
2021/09/15 06:13:54;;;;;;;12.90;11.67;;;20.60;99.90;;;;;;4975478;28;20513;-68
2021/09/15 06:16:22;;;;;;;14.00;11.63;;;20.60;99.90;;;;;;4975470;28;20874;-69
2021/09/15 06:18:49;;;;;;;13.70;12.50;;;20.60;99.90;;;;;;4975047;28;20992;-69
2021/09/15 06:21:16;;;;;;;19.07;13.30;;;20.60;99.90;;;;;;4975317;28;20466;-69
2021/09/15 06:23:43;;;;;;;13.60;12.43;;;20.60;99.90;;;;;;4974935;28;20922;-68
2021/09/15 06:26:10;;;;;;;11.30;10.50;;;20.60;99.90;;;;;;4975686;28;20435;-68
2021/09/15 06:28:37;;;;;;;13.20;11.80;;;20.60;99.90;;;;;;4975888;28;20547;-68
2021/09/15 06:31:05;;;;;;;12.70;11.43;;;20.50;99.90;;;;;;4975139;28;20496;-68
2021/09/15 06:33:33;;;;;;;11.80;10.63;;;20.50;99.90;;;;;;4975265;28;20485;-68
2021/09/15 06:36:00;;;;;;;11.23;10.20;;;20.50;99.90;;;;;;4974986;28;20461;-68
2021/09/15 06:38:27;;;;;;;11.53;10.50;;;20.50;99.90;;;;;;4974991;28;20509;-69
2021/09/15 06:40:54;;;;;;;13.00;10.10;;;20.30;99.90;;;;;;4975096;28;20827;-69
2021/09/15 06:43:20;;;;;;;10.47;9.60;;;20.20;99.90;;;;;;4975481;28;20465;-69
2021/09/15 06:45:47;;;;;;;11.57;10.37;;;20.20;99.90;;;;;;4974760;28;20941;-69
2021/09/15 06:48:14;;;;;;;11.20;10.10;;;20.10;99.90;;;;;;4974986;28;20533;-69
2021/09/15 06:50:42;;;;;;;11.57;10.60;;;20.10;99.90;;;;;;4974786;28;20486;-70
2021/09/15 06:53:09;;;;;;;11.40;10.43;;;20.10;99.90;;;;;;4974602;28;20459;-69
2021/09/15 06:55:35;;;;;;;12.07;11.07;;;20.10;99.90;;;;;;4974562;28;20938;-70
2021/09/15 06:58:02;;;;;;;14.73;13.27;;;20.10;99.90;;;;;;4974836;28;20438;-69
2021/09/15 07:00:29;;;;;;;13.77;12.37;;;20.10;99.90;;;;;;4975076;28;20450;-70
2021/09/15 07:02:56;;;;;;;14.50;13.13;;;20.10;99.90;;;;;;4975102;28;20446;-70
2021/09/15 07:05:23;;;;;;;13.60;12.40;;;20.00;99.90;;;;;;4975633;28;20541;-70
2021/09/15 07:07:51;;;;;;;14.73;12.10;;;20.00;99.90;;;;;;4978399;28;20967;-70
2021/09/15 07:10:18;;;;;;;17.77;12.30;;;19.90;99.90;;;;;;4978759;28;20482;-69
2021/09/15 07:12:47;;;;;;;12.60;11.30;;;20.00;99.90;;;;;;4978774;28;20550;-70
2021/09/15 07:15:15;;;;;;;13.60;10.90;;;19.90;99.90;;;;;;4978576;28;20455;-70
2021/09/15 07:17:44;;;;;;;13.47;12.27;;;19.90;99.90;;;;;;4978500;28;20459;-70
2021/09/15 07:20:11;;;;;;;14.30;12.53;;;19.90;99.90;;;;;;4981432;28;20459;-70
2021/09/15 07:22:38;;;;;;;12.23;11.23;;;20.00;99.90;;;;;;4984533;28;20458;-70
2021/09/15 07:25:07;;;;;;;13.27;11.97;;;20.10;99.90;;;;;;4982846;28;20830;-70
2021/09/15 07:27:34;;;;;;;15.67;12.93;;;20.10;99.90;;;;;;4979911;28;20960;-70
2021/09/15 07:30:00;;;;;;;13.57;12.27;;;20.10;99.90;;;;;;4981869;28;20485;-70
2021/09/15 07:32:27;;;;;;;12.93;11.73;;;20.20;99.90;;;;;;4982969;28;20466;-69
2021/09/15 07:34:54;;;;;;;13.60;12.37;;;20.20;99.90;;;;;;4981563;28;20470;-70
2021/09/15 07:37:21;;;;;;;13.57;12.50;;;20.20;99.90;;;;;;4981842;28;20454;-69
2021/09/15 07:39:47;;;;;;;14.17;12.87;;;20.20;99.90;;;;;;4980489;28;20450;-69
2021/09/15 07:42:15;;;;;;;15.20;13.70;;;20.20;99.90;;;;;;4982097;28;20529;-69
2021/09/15 07:44:42;;;;;;;14.40;13.10;;;20.20;99.90;;;;;;4981131;28;20454;-69
2021/09/15 07:47:15;;;;;;;15.50;13.90;;;20.10;99.90;;;;;;4982144;28;20463;-69
2021/09/15 07:49:42;;;;;;;11.50;10.13;;;20.10;99.90;;;;;;4984839;28;20529;-69
2021/09/15 07:52:08;;;;;;;10.17;8.57;;;20.10;99.90;;;;;;4984165;28;20898;-69
2021/09/15 07:54:35;;;;;;;8.53;7.80;;;20.10;99.90;;;;;;4979158;28;20458;-69
2021/09/15 07:57:02;;;;;;;9.03;8.20;;;20.10;99.90;;;;;;4978548;28;21000;-69
2021/09/15 07:59:30;;;;;;;8.30;7.60;;;20.10;99.90;;;;;;4978111;28;20450;-69
2021/09/15 08:01:57;;;;;;;8.10;7.40;;;20.10;99.90;;;;;;4977497;28;20487;-69
2021/09/15 08:04:23;;;;;;;8.00;7.30;;;20.10;99.90;;;;;;4977961;28;20458;-69
2021/09/15 08:06:50;;;;;;;7.70;7.10;;;20.20;99.90;;;;;;4977786;28;20459;-69
2021/09/15 08:09:17;;;;;;;8.70;7.90;;;20.30;99.90;;;;;;4978048;28;20455;-69
2021/09/15 08:11:44;;;;;;;8.63;7.83;;;20.30;99.90;;;;;;4978147;28;20486;-69
2021/09/15 08:14:10;;;;;;;8.13;7.23;;;20.40;99.90;;;;;;4977430;28;20970;-69
2021/09/15 08:16:39;;;;;;;9.90;7.23;;;20.50;99.90;;;;;;4977675;28;20458;-70
2021/09/15 08:19:05;;;;;;;8.03;7.23;;;20.50;99.90;;;;;;4980202;28;20493;-70
2021/09/15 08:21:33;;;;;;;7.57;6.87;;;20.60;99.90;;;;;;4981043;28;21026;-69
2021/09/15 08:24:00;;;;;;;10.63;9.60;;;20.50;99.90;;;;;;4979658;28;20454;-69
2021/09/15 08:26:26;;;;;;;11.47;9.90;;;20.50;99.90;;;;;;4978805;28;20930;-69
2021/09/15 08:28:53;;;;;;;10.00;8.70;;;20.50;99.90;;;;;;4979677;28;20459;-69
2021/09/15 08:31:20;;;;;;;10.60;9.67;;;20.50;99.90;;;;;;4980125;28;20982;-69
2021/09/15 08:33:48;;;;;;;14.20;9.07;;;20.50;99.90;;;;;;4979796;28;20463;-69
2021/09/15 08:36:15;;;;;;;10.20;9.20;;;20.50;99.90;;;;;;4982372;28;20462;-69
2021/09/15 08:38:41;;;;;;;10.40;9.40;;;20.50;99.90;;;;;;4981682;28;20494;-69
2021/09/15 08:41:08;;;;;;;9.60;8.60;;;20.50;99.90;;;;;;4979610;28;20474;-69
2021/09/15 08:43:37;;;;;;;8.13;7.37;;;20.50;99.90;;;;;;4978597;28;20459;-69
2021/09/15 08:46:05;;;;;;;7.53;6.83;;;20.40;99.90;;;;;;4977070;28;20513;-69
2021/09/15 08:48:35;;;;;;;7.70;7.00;;;20.40;99.90;;;;;;4976995;28;20461;-69
2021/09/15 08:51:03;;;;;;;10.03;7.30;;;20.40;99.90;;;;;;4977532;28;20483;-69
2021/09/15 08:53:30;;;;;;;13.00;7.70;;;20.40;99.90;;;;;;4976722;28;20961;-69
2021/09/15 08:55:57;;;;;;;9.20;7.40;;;20.40;99.90;;;;;;4976531;28;20961;-69
2021/09/15 08:58:24;;;;;;;8.70;7.70;;;20.30;99.90;;;;;;4978306;28;20867;-69
2021/09/15 09:00:50;;;;;;;8.40;7.50;;;20.30;99.90;;;;;;4978238;28;20483;-69
2021/09/15 09:03:17;;;;;;;10.40;7.90;;;20.20;99.90;;;;;;4977406;28;20518;-69
2021/09/15 09:05:44;;;;;;;11.10;8.93;;;20.20;99.90;;;;;;4978210;28;20443;-69
2021/09/15 09:08:22;;;;;;;9.57;8.60;;;20.20;99.90;;;;;;4978478;28;20819;-69
2021/09/15 09:10:52;;;;;;;10.93;9.87;;;20.30;99.90;;;;;;4977572;28;20487;-69
2021/09/15 09:13:20;;;;;;;9.70;8.90;;;20.40;99.90;;;;;;4977286;28;20988;-69
2021/09/15 09:15:47;;;;;;;10.73;9.67;;;20.40;99.90;;;;;;4977005;28;20466;-69
2021/09/15 09:18:14;;;;;;;12.50;9.00;;;20.50;99.90;;;;;;4976752;28;20463;-69
2021/09/15 09:20:41;;;;;;;8.47;7.87;;;20.60;99.90;;;;;;4976390;28;20474;-69
2021/09/15 09:23:10;;;;;;;8.10;7.33;;;20.50;99.90;;;;;;4976445;28;20454;-69
2021/09/15 09:25:42;;;;;;;9.03;8.17;;;20.40;99.90;;;;;;4976552;28;20458;-69
2021/09/15 09:28:24;;;;;;;9.23;8.33;;;20.50;99.90;;;;;;4976148;28;20443;-69
2021/09/15 09:30:53;;;;;;;9.20;8.30;;;20.50;99.90;;;;;;4976062;28;20852;-69
2021/09/15 09:33:21;;;;;;;6.90;6.40;;;20.50;99.90;;;;;;4975775;28;20461;-69
2021/09/15 09:35:50;;;;;;;7.97;7.27;;;20.50;99.90;;;;;;4976235;28;20442;-69
2021/09/15 09:38:19;;;;;;;6.60;6.00;;;20.50;99.90;;;;;;4976202;28;20450;-69
2021/09/15 09:41:13;;;;;;;9.30;7.00;;;20.50;99.90;;;;;;4975878;28;20475;-69
2021/09/15 09:43:42;;;;;;;10.80;6.73;;;20.50;99.90;;;;;;4957617;28;20553;-69
2021/09/15 09:46:11;;;;;;;8.40;5.70;;;20.40;99.90;;;;;;4975970;28;20457;-69
2021/09/15 09:48:43;;;;;;;7.87;7.07;;;20.20;99.90;;;;;;4975912;28;20463;-68
2021/09/15 09:51:28;;;;;;;7.20;6.60;;;20.30;99.90;;;;;;4975654;28;20482;-69
2021/09/15 09:54:20;;;;;;;6.60;6.10;;;20.20;99.90;;;;;;4975520;28;20779;-69
2021/09/15 09:56:49;;;;;;;5.90;5.27;;;20.30;99.90;;;;;;4975863;28;20447;-69
2021/09/15 09:59:17;;;;;;;6.53;6.00;;;20.30;99.90;;;;;;4975537;28;20462;-69
2021/09/15 10:01:46;;;;;;;7.27;6.60;;;20.30;99.90;;;;;;4975310;28;20483;-69
2021/09/15 10:04:14;;;;;;;8.00;6.60;;;20.30;99.90;;;;;;4975741;28;20465;-69
2021/09/15 10:06:42;;;;;;;8.50;6.27;;;20.40;99.90;;;;;;4975689;28;20462;-69
2021/09/15 10:09:09;;;;;;;7.20;6.60;;;20.40;99.90;;;;;;4975645;28;20454;-69
2021/09/15 10:11:38;;;;;;;6.07;5.57;;;20.50;99.90;;;;;;4975971;28;20478;-69
2021/09/15 10:14:09;;;;;;;6.20;5.80;;;20.50;99.90;;;;;;4979145;28;20454;-69
2021/09/15 10:16:42;;;;;;;6.50;6.00;;;20.70;99.90;;;;;;4980663;28;20442;-69
2021/09/15 10:19:10;;;;;;;7.00;6.50;;;20.70;99.90;;;;;;4980053;28;20458;-69
2021/09/15 10:21:38;;;;;;;6.63;6.00;;;20.80;99.90;;;;;;4976230;28;20479;-70
2021/09/15 10:24:05;;;;;;;6.80;6.10;;;21.00;99.90;;;;;;4975245;28;20455;-69
2021/09/15 10:26:37;;;;;;;6.83;6.23;;;21.10;99.90;;;;;;4975194;28;20462;-69
2021/09/15 10:29:26;;;;;;;6.70;5.77;;;21.30;99.90;;;;;;4975151;28;20458;-69
2021/09/15 10:32:06;;;;;;;7.00;6.50;;;21.50;99.90;;;;;;4974974;28;20582;-69
2021/09/15 10:34:54;;;;;;;8.63;6.37;;;21.60;99.90;;;;;;4975148;28;20435;-68
2021/09/15 10:37:51;;;;;;;8.97;5.73;;;21.70;99.90;;;;;;4975173;28;20505;-70
2021/09/15 10:40:41;;;;;;;9.03;5.43;;;21.80;99.90;;;;;;4974567;28;20906;-70
2021/09/15 10:43:39;;;;;;;6.07;5.60;;;21.90;99.90;;;;;;4974802;28;20906;-70
2021/09/15 10:46:26;;;;;;;6.10;5.60;;;22.00;99.90;;;;;;4896385;29;20459;-70
2021/09/15 10:49:30;;;;;;;7.47;6.03;;;22.10;99.90;;;;;;4968096;28;20462;-70
2021/09/15 10:52:39;;;;;;;5.70;5.20;;;22.30;99.90;;;;;;4974815;28;20847;-68
2021/09/15 10:55:17;;;;;;;5.57;5.10;;;22.40;99.90;;;;;;4975046;28;20439;-69
2021/09/15 10:57:44;;;;;;;6.27;5.67;;;22.40;99.90;;;;;;4974839;28;20461;-70
2021/09/15 11:00:27;;;;;;;6.13;5.40;;;22.40;99.90;;;;;;4974442;28;20458;-69
2021/09/15 11:02:57;;;;;;;6.47;5.77;;;22.40;99.90;;;;;;4974535;28;20928;-69
2021/09/15 11:05:44;;;;;;;6.00;5.50;;;22.40;99.90;;;;;;4974912;28;20514;-69
2021/09/15 11:08:21;;;;;;;6.20;5.70;;;22.40;99.90;;;;;;4974840;28;20826;-69
2021/09/15 11:10:48;;;;;;;6.50;5.90;;;22.40;99.90;;;;;;4974662;28;20474;-69
2021/09/15 11:13:16;;;;;;;5.93;5.50;;;22.30;99.90;;;;;;4975008;28;20836;-69
2021/09/15 11:15:45;;;;;;;7.20;6.27;;;22.30;99.90;;;;;;4974551;28;20953;-68
2021/09/15 11:18:23;;;;;;;6.73;6.07;;;22.40;99.90;;;;;;4974683;28;20458;-69
2021/09/15 11:20:55;;;;;;;5.73;5.23;;;22.50;99.90;;;;;;4974670;28;20478;-69
2021/09/15 11:23:25;;;;;;;6.50;5.93;;;22.60;99.90;;;;;;4974725;28;20454;-70
2021/09/15 11:25:52;;;;;;;8.60;6.63;;;22.60;99.90;;;;;;4974321;28;20942;-69
2021/09/15 11:28:22;;;;;;;8.03;6.10;;;22.60;99.90;;;;;;4974677;28;20482;-70
2021/09/15 11:31:00;;;;;;;8.43;6.00;;;22.70;99.90;;;;;;4974554;28;20474;-69
2021/09/15 11:33:30;;;;;;;7.20;6.50;;;22.80;99.90;;;;;;4974618;28;20473;-69
2021/09/15 11:35:58;;;;;;;7.57;6.83;;;22.80;99.90;;;;;;4974649;28;20494;-69
2021/09/15 11:38:26;;;;;;;6.70;6.07;;;22.80;99.90;;;;;;4974460;28;20505;-69
2021/09/15 11:40:53;;;;;;;7.40;6.60;;;22.90;99.90;;;;;;4974618;28;20557;-69
2021/09/15 11:43:21;;;;;;;8.03;6.43;;;23.00;99.90;;;;;;4974450;28;20455;-68
2021/09/15 11:45:49;;;;;;;7.27;6.67;;;23.00;99.90;;;;;;4974817;28;20454;-68
2021/09/15 11:48:26;;;;;;;7.47;6.70;;;23.10;99.90;;;;;;4975113;28;20529;-70
2021/09/15 11:50:55;;;;;;;7.07;6.47;;;23.10;99.90;;;;;;4974053;28;21014;-69
2021/09/15 11:53:23;;;;;;;8.10;5.77;;;23.20;99.90;;;;;;4977790;28;20501;-69
2021/09/15 11:55:58;;;;;;;7.00;6.50;;;23.30;99.90;;;;;;4977850;28;20461;-69
2021/09/15 11:58:25;;;;;;;6.60;6.00;;;23.30;99.90;;;;;;4977519;28;20910;-70
2021/09/15 12:00:52;;;;;;;7.77;6.80;;;23.40;99.90;;;;;;4977441;28;20486;-70
2021/09/15 12:03:24;;;;;;;7.50;6.77;;;23.30;99.90;;;;;;4978424;28;20451;-69
2021/09/15 12:05:52;;;;;;;6.90;6.30;;;23.30;99.90;;;;;;4978394;28;20906;-69
2021/09/15 12:08:20;;;;;;;7.23;6.63;;;23.20;99.90;;;;;;4978586;28;20462;-69
2021/09/15 12:10:47;;;;;;;7.40;6.70;;;23.20;99.90;;;;;;4978515;28;20482;-69
2021/09/15 12:13:14;;;;;;;5.63;5.23;;;23.10;99.90;;;;;;4978854;28;20485;-69
2021/09/15 12:15:46;;;;;;;7.07;6.60;;;23.10;99.90;;;;;;4978395;28;20458;-69
2021/09/15 12:18:12;;;;;;;6.87;6.27;;;23.10;99.90;;;;;;4978205;28;20958;-69
2021/09/15 12:20:41;;;;;;;6.90;6.30;;;23.00;99.90;;;;;;4978277;28;20474;-69
2021/09/15 12:23:08;;;;;;;8.93;6.37;;;23.00;99.90;;;;;;4978104;28;20457;-69
2021/09/15 12:25:36;;;;;;;6.30;5.80;;;22.90;99.90;;;;;;4977970;28;20462;-69
2021/09/15 12:28:04;;;;;;;7.80;7.03;;;22.90;99.90;;;;;;4978146;28;20462;-70
2021/09/15 12:30:31;;;;;;;7.67;5.50;;;22.90;99.90;;;;;;4982805;28;20454;-69
2021/09/15 12:33:01;;;;;;;7.50;6.87;;;22.90;99.90;;;;;;4984592;28;20478;-68
2021/09/15 12:35:34;;;;;;;6.43;5.90;;;22.80;99.90;;;;;;4980405;28;20462;-68
2021/09/15 12:38:03;;;;;;;6.90;6.20;;;22.80;99.90;;;;;;4979821;28;20442;-69
2021/09/15 12:40:31;;;;;;;6.90;6.20;;;22.70;99.90;;;;;;4978225;28;20476;-70
2021/09/15 12:43:02;;;;;;;6.87;6.17;;;22.60;99.90;;;;;;4978554;28;20463;-68
2021/09/15 12:45:30;;;;;;;6.67;6.10;;;22.70;99.90;;;;;;4978565;28;20443;-70
2021/09/15 12:47:57;;;;;;;7.63;6.93;;;22.80;99.90;;;;;;4978156;28;20466;-70
2021/09/15 12:50:26;;;;;;;7.63;6.93;;;22.90;99.90;;;;;;4977643;28;20458;-68
2021/09/15 12:53:00;;;;;;;7.40;6.70;;;22.90;99.90;;;;;;4978070;28;20489;-68
2021/09/15 12:55:28;;;;;;;7.20;6.60;;;22.80;99.90;;;;;;4978768;28;20443;-68
2021/09/15 12:57:57;;;;;;;6.87;6.10;;;22.90;99.90;;;;;;4978599;28;20459;-69
2021/09/15 13:00:27;;;;;;;6.37;5.83;;;23.10;99.90;;;;;;4978245;28;20455;-68
2021/09/15 13:02:56;;;;;;;6.47;5.97;;;23.20;99.90;;;;;;4977500;28;20846;-68
2021/09/15 13:05:23;;;;;;;7.17;6.47;;;23.30;99.90;;;;;;4976673;28;20505;-69
2021/09/15 13:07:52;;;;;;;8.57;6.73;;;23.40;99.90;;;;;;4976731;28;20462;-69
2021/09/15 13:10:19;;;;;;;6.90;6.30;;;23.40;99.90;;;;;;4976278;28;20443;-69
2021/09/15 13:12:46;;;;;;;9.27;6.50;;;23.40;99.90;;;;;;4976001;28;20822;-70
2021/09/15 13:15:13;;;;;;;6.87;6.17;;;23.40;99.90;;;;;;4976396;28;20463;-70
2021/09/15 13:17:41;;;;;;;8.60;6.20;;;23.50;99.90;;;;;;4976369;28;20830;-69
2021/09/15 13:20:10;;;;;;;6.90;6.33;;;23.70;99.90;;;;;;4976686;28;20462;-70
2021/09/15 13:22:37;;;;;;;7.40;6.07;;;23.80;99.90;;;;;;4976610;28;20558;-69
2021/09/15 13:25:04;;;;;;;8.03;6.40;;;24.00;99.90;;;;;;4976423;28;20480;-69
2021/09/15 13:27:31;;;;;;;7.10;6.40;;;24.10;99.90;;;;;;4976276;28;20545;-70
2021/09/15 13:29:57;;;;;;;6.30;5.43;;;24.30;99.90;;;;;;4976243;28;20455;-70
2021/09/15 13:32:24;;;;;;;5.40;4.90;;;24.50;99.90;;;;;;4975937;28;20485;-70
2021/09/15 13:34:52;;;;;;;5.07;4.70;;;24.60;99.90;;;;;;4976174;28;20455;-69
2021/09/15 13:37:19;;;;;;;4.83;4.23;;;24.70;99.90;;;;;;4975974;28;20462;-70
2021/09/15 13:39:45;;;;;;;5.20;4.80;;;24.90;99.90;;;;;;4976206;28;20505;-70
2021/09/15 13:42:12;;;;;;;4.70;4.40;;;24.90;99.90;;;;;;4975939;28;20482;-70
2021/09/15 13:44:39;;;;;;;4.93;4.57;;;25.10;99.90;;;;;;4975952;28;20447;-70
2021/09/15 13:47:06;;;;;;;4.80;4.50;;;25.20;99.90;;;;;;4976166;28;20463;-69
2021/09/15 13:49:38;;;;;;;4.87;4.47;;;25.20;99.90;;;;;;4975965;28;20463;-70
2021/09/15 13:52:09;;;;;;;4.97;4.57;;;25.30;99.90;;;;;;4975964;28;20513;-70
2021/09/15 13:54:37;;;;;;;4.47;4.07;;;25.30;99.90;;;;;;4975859;28;20443;-70
2021/09/15 13:57:05;;;;;;;4.30;4.00;;;25.40;99.90;;;;;;4976314;28;20463;-69
2021/09/15 13:59:31;;;;;;;4.37;4.07;;;25.30;99.90;;;;;;4975661;28;20455;-69
2021/09/15 14:01:59;;;;;;;4.83;4.43;;;25.40;99.90;;;;;;4975329;28;20850;-69
2021/09/15 14:04:25;;;;;;;5.47;4.90;;;25.40;99.90;;;;;;4975569;28;20466;-69
2021/09/15 14:06:52;;;;;;;3.70;3.50;;;25.50;99.90;;;;;;4975521;28;20465;-69
2021/09/15 14:09:20;;;;;;;4.47;4.07;;;25.50;99.90;;;;;;4975661;28;20462;-70
2021/09/15 14:11:47;;;;;;;3.70;3.40;;;25.40;99.90;;;;;;4975412;28;20510;-69
2021/09/15 14:14:14;;;;;;;4.00;3.70;;;25.20;99.90;;;;;;4975266;28;20462;-69
2021/09/15 14:16:41;;;;;;;4.73;4.00;;;25.20;99.90;;;;;;4974663;28;20485;-70
2021/09/15 14:19:08;;;;;;;4.30;3.90;;;25.20;99.90;;;;;;4975363;28;20454;-69
2021/09/15 14:21:35;;;;;;;4.70;4.30;;;25.20;99.90;;;;;;4975278;28;20475;-69
2021/09/15 14:24:02;;;;;;;4.23;3.83;;;25.20;99.90;;;;;;4975236;28;20459;-69
2021/09/15 14:26:30;;;;;;;3.67;3.43;;;25.20;99.90;;;;;;4975223;28;20461;-69
2021/09/15 14:28:57;;;;;;;3.87;3.57;;;25.30;99.90;;;;;;4974851;28;20505;-69
2021/09/15 14:31:23;;;;;;;3.83;3.53;;;25.30;99.90;;;;;;4974597;28;20487;-68
2021/09/15 14:33:50;;;;;;;4.23;3.97;;;25.30;99.90;;;;;;4974681;28;20482;-69
2021/09/15 14:36:18;;;;;;;4.90;3.93;;;25.30;99.90;;;;;;4975063;28;20459;-70
2021/09/15 14:38:46;;;;;;;4.30;4.00;;;25.30;99.90;;;;;;4975102;28;20462;-70
2021/09/15 14:41:14;;;;;;;3.70;3.47;;;25.30;99.90;;;;;;4974997;28;20575;-70
2021/09/15 14:43:42;;;;;;;3.43;3.23;;;25.20;99.90;;;;;;4975215;28;20457;-70
2021/09/15 14:46:10;;;;;;;4.87;4.47;;;25.10;99.90;;;;;;4976422;28;20525;-70
2021/09/15 14:48:37;;;;;;;3.77;3.57;;;25.10;99.90;;;;;;4977500;28;20950;-69
2021/09/15 14:51:05;;;;;;;4.27;3.90;;;25.10;99.90;;;;;;4979704;28;20522;-69
2021/09/15 14:53:32;;;;;;;4.73;4.20;;;25.00;99.90;;;;;;4976373;28;20483;-69
2021/09/15 14:55:59;;;;;;;3.97;3.67;;;25.00;99.90;;;;;;4974897;28;20439;-69
2021/09/15 14:58:25;;;;;;;3.17;3.00;;;25.00;99.90;;;;;;4974807;28;20463;-69
2021/09/15 15:00:53;;;;;;;5.27;3.97;;;25.00;99.90;;;;;;4974253;28;20891;-69
2021/09/15 15:03:20;;;;;;;4.17;3.90;;;25.00;99.90;;;;;;4974779;28;20457;-70
2021/09/15 15:05:48;;;;;;;5.80;4.23;;;25.10;99.90;;;;;;4974784;28;20450;-69
2021/09/15 15:08:14;;;;;;;4.07;3.83;;;25.20;99.90;;;;;;4974863;28;20490;-69
2021/09/15 15:10:41;;;;;;;5.53;4.30;;;25.30;99.90;;;;;;4974419;28;21044;-69
2021/09/15 15:13:08;;;;;;;3.73;3.37;;;25.30;99.90;;;;;;4974740;28;20482;-69
2021/09/15 15:15:34;;;;;;;3.20;3.10;;;25.40;99.90;;;;;;4974667;28;20459;-69
2021/09/15 15:18:02;;;;;;;3.53;3.20;;;25.40;99.90;;;;;;4974570;28;20855;-70
2021/09/15 15:20:30;;;;;;;3.30;3.10;;;25.30;99.90;;;;;;4974542;28;20465;-70
2021/09/15 15:22:56;;;;;;;3.80;3.60;;;25.30;99.90;;;;;;4974653;28;20458;-70
2021/09/15 15:25:23;;;;;;;4.60;4.13;;;25.20;99.90;;;;;;4974284;28;20505;-70
2021/09/15 15:27:50;;;;;;;3.63;3.43;;;25.20;99.90;;;;;;4977782;28;20530;-69
2021/09/15 15:30:19;;;;;;;5.80;3.50;;;25.10;99.90;;;;;;4978554;28;20454;-70
2021/09/15 15:32:47;;;;;;;4.70;4.40;;;25.00;99.90;;;;;;4978203;28;20582;-70
2021/09/15 15:35:18;;;;;;;4.87;4.47;;;25.00;99.90;;;;;;4978226;28;20462;-70
2021/09/15 15:37:45;;;;;;;4.90;4.40;;;24.90;99.90;;;;;;4978329;28;20477;-69
2021/09/15 15:40:13;;;;;;;4.53;4.20;;;24.80;99.90;;;;;;4978068;28;20513;-69
2021/09/15 15:42:40;;;;;;;5.50;4.57;;;24.70;99.90;;;;;;4978110;28;20475;-70
2021/09/15 15:45:08;;;;;;;5.50;5.20;;;24.60;99.90;;;;;;4978182;28;20458;-70
2021/09/15 15:47:35;;;;;;;6.70;4.90;;;24.50;99.90;;;;;;4978254;28;20813;-70
2021/09/15 15:50:03;;;;;;;5.73;5.10;;;24.40;99.90;;;;;;4978174;28;20458;-70
2021/09/15 15:52:31;;;;;;;6.00;5.47;;;24.20;99.90;;;;;;4977495;28;20985;-70
2021/09/15 15:54:58;;;;;;;7.87;5.40;;;24.10;99.90;;;;;;4977897;28;20451;-70
2021/09/15 15:57:26;;;;;;;6.43;5.47;;;23.90;99.90;;;;;;4977898;28;20465;-70
2021/09/15 15:59:53;;;;;;;6.20;5.60;;;23.80;99.90;;;;;;4977643;28;20501;-69
2021/09/15 16:02:20;;;;;;;5.20;4.83;;;23.80;99.90;;;;;;4977305;28;20497;-70
2021/09/15 16:04:47;;;;;;;5.03;4.67;;;23.80;99.90;;;;;;4977978;28;20454;-70
2021/09/15 16:07:15;;;;;;;5.47;4.97;;;23.80;99.90;;;;;;4977661;28;20812;-70
2021/09/15 16:09:44;;;;;;;4.70;4.30;;;23.80;99.90;;;;;;4977638;28;20486;-70
2021/09/15 16:12:11;;;;;;;4.83;4.50;;;23.70;99.90;;;;;;4977017;28;21013;-70
2021/09/15 16:14:37;;;;;;;5.20;4.80;;;23.60;99.90;;;;;;4977438;28;20525;-70
2021/09/15 16:17:04;;;;;;;4.73;4.43;;;23.60;99.90;;;;;;4977603;28;20459;-70
2021/09/15 16:19:31;;;;;;;7.00;5.70;;;23.60;99.90;;;;;;4977438;28;20458;-70
2021/09/15 16:21:58;;;;;;;5.43;4.93;;;23.50;99.90;;;;;;4977396;28;20474;-70
2021/09/15 16:24:24;;;;;;;5.30;4.80;;;23.40;99.90;;;;;;4977172;28;20942;-70
2021/09/15 16:26:52;;;;;;;5.30;4.80;;;23.30;99.90;;;;;;4977285;28;20462;-70
2021/09/15 16:29:19;;;;;;;5.33;4.80;;;23.20;99.90;;;;;;4977411;28;20454;-70
2021/09/15 16:31:46;;;;;;;5.40;4.90;;;23.20;99.90;;;;;;4977185;28;20533;-70
2021/09/15 16:34:13;;;;;;;5.43;4.93;;;23.10;99.90;;;;;;4977195;28;20485;-70
2021/09/15 16:36:39;;;;;;;5.80;5.37;;;22.90;99.90;;;;;;4976907;28;20965;-70
2021/09/15 16:39:06;;;;;;;5.40;5.00;;;22.80;99.90;;;;;;4976305;28;20466;-70
2021/09/15 16:41:33;;;;;;;5.40;4.90;;;22.70;99.90;;;;;;4977014;28;20479;-70
2021/09/15 16:44:01;;;;;;;5.20;4.70;;;22.60;99.90;;;;;;4976806;28;20965;-70
2021/09/15 16:46:28;;;;;;;5.47;4.53;;;22.50;99.90;;;;;;4977791;28;20482;-70
2021/09/15 16:48:54;;;;;;;5.43;4.93;;;22.50;99.90;;;;;;4976989;28;20513;-70
2021/09/15 16:51:21;;;;;;;4.93;4.63;;;22.50;99.90;;;;;;4976572;28;20479;-70
2021/09/15 16:53:48;;;;;;;5.10;4.63;;;22.50;99.90;;;;;;4976967;28;20482;-70
2021/09/15 16:56:14;;;;;;;7.87;5.00;;;22.40;99.90;;;;;;4976824;28;20462;-70